Latest Weather Observations for St George

IDQ60801

Issued at 5:35 pm EST Friday 22 August 2014 (issued every 30 minutes, with the page automatically refreshed every 10 minutes)

About weather observations | Map of weather stations | Latest weather observations for QLD | Other Formats
Station Details ID: 043109 Name: ST GEORGE AIRPORT Lat: -28.05 Lon: 148.59 Height: 198.5 m
Data from the previous 72 hours. | See also: Recent months at St George
Date/Time
EST
Temp
°C
App
Temp
°C
Dew
Point
Rel
Hum
%
Delta-T
°C
Wind Press
QNH
hPa
Press
MSL
hPa
Rain
since 9 am
mm
Dir
 
Spd
km/h
Gust
km/h
Spd
kts
Gust
kts
22/05:30pm 18.4 13.2 8.7 53 5.1 E 26 41 14 22 1023.1 - 0.0
22/05:26pm 18.6 12.8 8.0 50 5.5 ESE 28 41 15 22 1023.0 - 0.0
22/05:00pm 19.4 16.1 6.5 43 6.5 ESE 13 17 7 9 1022.6 - 0.0
22/04:30pm 20.0 16.7 6.4 41 6.9 ESE 13 19 7 10 1022.3 - 0.0
22/04:00pm 20.3 15.0 5.1 37 7.5 ESE 22 30 12 16 1022.1 - 0.0
22/03:30pm 21.6 16.9 5.9 36 8.0 ESE 20 28 11 15 1022.1 - 0.0
22/03:00pm 21.1 17.1 6.6 39 7.4 ESE 17 24 9 13 1022.3 1022.2 0.0
22/02:30pm 21.4 17.7 6.5 38 7.6 E 15 22 8 12 1022.5 - 0.0
22/02:00pm 20.7 17.3 5.9 38 7.5 E 13 22 7 12 1023.0 - 0.0
22/01:30pm 20.1 16.4 6.1 40 7.0 ESE 15 22 8 12 1023.3 - 0.0
22/01:00pm 20.0 17.2 8.4 47 6.1 ESE 13 22 7 12 1023.8 - 0.0
22/12:30pm 19.6 16.3 8.0 47 6.0 E 15 24 8 13 1024.3 - 0.0
22/12:00pm 19.4 16.6 8.7 50 5.6 E 13 20 7 11 1024.9 1024.8 0.0
22/11:30am 17.6 14.7 9.8 60 4.2 E 15 20 8 11 1025.5 - 0.0
22/11:00am 16.8 13.8 9.2 61 4.0 E 15 22 8 12 1026.0 - 0.0
22/10:30am 15.4 13.2 10.8 74 2.5 SE 13 20 7 11 1026.3 - 0.0
22/10:00am 15.1 12.2 9.7 70 2.8 E 15 19 8 10 1026.5 - 0.0
22/09:30am 14.7 12.6 9.9 73 2.5 ESE 11 13 6 7 1026.4 - 0.0
22/09:00am 14.4 12.7 10.0 75 2.3 E 9 13 5 7 1026.1 1026.1 0.8
22/08:30am 14.7 13.1 10.3 75 2.3 E 9 13 5 7 1025.9 - 0.8
22/08:00am 13.6 11.9 10.0 79 1.9 E 9 13 5 7 1025.6 - 0.8
22/07:30am 12.0 10.9 9.9 87 1.1 E 6 7 3 4 1025.2 - 0.8
22/07:00am 11.6 10.2 9.7 88 1.0 ENE 7 9 4 5 1024.9 - 0.8
22/06:30am 11.3 9.9 9.7 90 0.8 ENE 7 9 4 5 1024.5 - 0.8
22/06:00am 11.2 9.4 9.6 90 0.8 ESE 9 13 5 7 1024.2 1024.1 0.8
22/05:30am 12.0 10.6 9.7 86 1.2 E 7 9 4 5 1023.8 - 0.8
22/05:00am 12.3 10.6 9.9 85 1.2 NE 9 15 5 8 1023.5 - 0.8
22/04:30am 12.1 9.9 9.5 84 1.3 NE 11 17 6 9 1023.2 - 0.8
22/04:00am 12.3 9.7 9.3 82 1.5 ENE 13 19 7 10 1023.1 - 0.8
22/03:30am 12.3 9.6 9.1 81 1.6 ENE 13 17 7 9 1023.0 - 0.8
22/03:00am 12.5 9.8 9.0 79 1.8 ENE 13 17 7 9 1023.1 1023.0 0.8
22/02:30am 12.3 10.3 8.8 79 1.8 E 9 13 5 7 1023.2 - 0.8
22/02:00am 12.7 10.8 9.0 78 1.9 ENE 9 15 5 8 1023.3 - 0.8
22/01:30am 13.1 10.9 9.2 77 2.0 ENE 11 17 6 9 1023.4 - 0.8
22/01:00am 13.1 10.5 9.5 79 1.9 E 13 19 7 10 1023.4 - 0.8
22/12:30am 12.7 10.8 9.2 79 1.8 E 9 13 5 7 1023.6 - 0.8
22/12:00am 12.8 10.5 8.9 77 2.0 E 11 15 6 8 1023.8 1023.7 0.8
 
Date/Time
EST
Temp
°C
App
Temp
°C
Dew
Point
Rel
Hum
%
Delta-T
°C
Wind Press
QNH
hPa
Press
MSL
hPa
Rain
since 9 am
mm
Dir
 
Spd
km/h
Gust
km/h
Spd
kts
Gust
kts
21/11:30pm 12.5 11.0 9.1 80 1.7 E 7 11 4 6 1023.9 - 0.8
21/11:00pm 12.6 10.7 9.1 79 1.8 ESE 9 13 5 7 1023.8 - 0.8
21/10:30pm 12.9 10.7 9.2 78 1.9 E 11 15 6 8 1024.0 - 0.8
21/10:00pm 12.2 10.4 9.6 84 1.3 ENE 9 11 5 6 1023.9 - 0.8
21/09:30pm 11.5 10.6 9.1 85 1.2 E 4 7 2 4 1023.7 - 0.8
21/09:00pm 11.9 10.5 8.7 81 1.6 SSE 6 7 3 4 1023.5 1023.4 0.8
21/08:30pm 12.3 10.0 9.1 81 1.6 SSE 11 13 6 7 1023.2 - 0.8
21/08:00pm 12.6 10.7 9.1 79 1.8 SSE 9 11 5 6 1023.0 - 0.8
21/07:30pm 13.4 11.3 9.6 78 2.0 SE 11 13 6 7 1022.8 - 0.8
21/07:00pm 14.3 12.2 9.9 75 2.3 SSE 11 15 6 8 1022.3 - 0.8
21/06:30pm 14.9 13.2 9.7 71 2.7 S 9 11 5 6 1021.9 - 0.8
21/06:00pm 15.1 13.0 9.7 70 2.8 SW 11 13 6 7 1021.4 1021.3 0.8
21/05:30pm 17.0 14.7 10.6 66 3.4 SE 13 19 7 10 1020.9 - 0.8
21/05:00pm 16.9 14.6 10.5 66 3.4 SE 13 19 7 10 1020.8 - 0.8
21/04:30pm 16.3 14.8 10.6 69 3.1 ESE 9 15 5 8 1020.7 - 0.8
21/04:00pm 16.5 14.1 9.9 65 3.5 ESE 13 19 7 10 1020.6 - 0.8
21/03:30pm 16.9 13.7 8.6 58 4.3 SSE 15 19 8 10 1020.7 - 0.8
21/03:00pm 15.7 13.9 10.7 72 2.7 W 11 15 6 8 1020.8 1020.7 0.8
21/02:30pm 16.1 13.0 10.4 69 3.0 ENE 17 22 9 12 1021.2 - 0.2
21/02:00pm 16.3 11.7 8.0 58 4.2 ENE 22 30 12 16 1020.9 - 0.0
21/01:30pm 19.2 16.6 9.4 53 5.2 E 13 17 7 9 1020.8 - 0.0
21/01:00pm 19.4 17.8 8.7 50 5.6 E 7 13 4 7 1021.1 - 0.0
21/12:30pm 20.2 18.2 8.8 48 6.0 NNE 9 19 5 10 1021.8 - 0.0
21/12:00pm 19.5 17.5 8.8 50 5.6 N 9 17 5 9 1022.4 1022.3 0.0
21/11:30am 18.4 16.5 9.2 55 4.9 NNE 9 19 5 10 1022.8 - 0.0
21/11:00am 17.4 14.8 9.3 59 4.3 N 13 19 7 10 1023.2 - 0.0
21/10:30am 17.3 14.4 9.7 61 4.0 NNE 15 20 8 11 1023.3 - 0.0
21/10:00am 16.9 13.9 9.1 60 4.1 NE 15 20 8 11 1023.4 - 0.0
21/09:30am 15.9 12.9 9.3 65 3.4 NE 15 20 8 11 1023.3 - 0.0
21/09:00am 14.5 11.8 9.1 70 2.8 ENE 13 19 7 10 1023.1 1023.0 0.0
21/08:30am 12.4 10.1 8.9 79 1.8 E 11 15 6 8 1023.1 - 0.0
21/08:00am 10.1 8.1 7.2 82 1.4 E 7 9 4 5 1022.9 - 0.0
21/07:30am 9.3 7.1 6.4 82 1.4 ESE 7 9 4 5 1022.6 - 0.0
21/07:00am 8.3 6.0 5.8 84 1.1 ESE 7 9 4 5 1022.4 - 0.0
21/06:30am 7.8 5.1 5.4 85 1.1 SE 9 11 5 6 1022.0 - 0.0
21/06:00am 7.5 5.1 5.3 86 1.0 S 7 9 4 5 1021.8 1021.7 0.0
21/05:30am 7.3 4.4 4.6 83 1.2 S 9 9 5 5 1021.7 - 0.0
21/05:00am 7.8 5.6 5.3 84 1.1 SSE 6 7 3 4 1021.5 - 0.0
21/04:30am 7.8 6.7 5.3 84 1.1 CALM 0 0 0 0 1021.7 - 0.0
21/04:00am 7.9 5.6 4.8 81 1.4 SE 6 7 3 4 1021.4 - 0.0
21/03:30am 8.6 6.4 5.2 79 1.5 SE 6 7 3 4 1021.4 - 0.0
21/03:00am 8.4 5.9 4.8 78 1.6 SE 7 9 4 5 1021.4 1021.3 0.0
21/02:30am 9.1 6.6 4.9 75 1.9 ESE 7 9 4 5 1021.3 - 0.0
21/02:00am 9.8 7.1 5.4 74 2.0 SSE 9 9 5 5 1021.3 - 0.0
21/01:30am 9.4 7.0 5.4 76 1.8 SSE 7 9 4 5 1021.5 - 0.0
21/01:00am 9.3 6.5 5.3 76 1.8 S 9 11 5 6 1021.5 - 0.0
21/12:30am 9.7 7.5 5.5 75 1.9 SSE 6 7 3 4 1021.7 - 0.0
21/12:00am 9.5 6.7 5.1 74 2.0 SSE 9 9 5 5 1021.7 1021.5 0.0
 
Date/Time
EST
Temp
°C
App
Temp
°C
Dew
Point
Rel
Hum
%
Delta-T
°C
Wind Press
QNH
hPa
Press
MSL
hPa
Rain
since 9 am
mm
Dir
 
Spd
km/h
Gust
km/h
Spd
kts
Gust
kts
20/11:30pm 10.7 8.4 5.7 71 2.3 SSE 7 9 4 5 1021.8 - 0.0
20/11:00pm 10.8 8.4 5.1 68 2.6 SSE 7 9 4 5 1021.8 - 0.0
20/10:30pm 12.1 9.8 5.5 64 3.1 SSE 7 9 4 5 1022.1 - 0.0
20/10:00pm 12.3 9.6 5.7 64 3.1 SSE 9 11 5 6 1022.1 - 0.0
20/09:30pm 12.9 10.2 5.6 61 3.5 SSE 9 11 5 6 1022.1 - 0.0
20/09:00pm 13.5 10.8 5.4 58 3.8 S 9 11 5 6 1021.9 1021.8 0.0
20/08:30pm 14.4 10.9 5.5 55 4.3 S 13 17 7 9 1021.5 - 0.0
20/08:00pm 15.3 11.5 5.8 53 4.6 SSE 15 17 8 9 1021.2 - 0.0
20/07:30pm 15.8 12.0 5.7 51 4.9 S 15 20 8 11 1020.8 - 0.0
20/07:00pm 16.3 12.8 5.6 49 5.2 S 13 15 7 8 1020.7 - 0.0
20/06:30pm 16.9 13.7 5.2 46 5.7 S 11 13 6 7 1020.5 - 0.0
20/06:00pm 17.6 14.0 4.9 43 6.1 S 13 17 7 9 1020.3 1020.2 0.0
20/05:30pm 18.5 15.6 4.7 40 6.7 S 9 13 5 7 1020.0 - 0.0
20/05:00pm 19.5 15.6 3.6 35 7.6 SSE 13 17 7 9 1019.7 - 0.0
20/04:30pm 20.3 16.1 3.9 34 7.9 S 15 20 8 11 1019.4 - 0.0
20/04:00pm 19.9 15.6 3.2 33 7.9 SE 15 20 8 11 1019.2 - 0.0
20/03:30pm 19.7 15.0 3.4 34 7.8 SSE 17 24 9 13 1019.1 - 0.0
20/03:00pm 20.4 16.2 4.0 34 7.9 SSE 15 22 8 12 1018.9 1018.8 0.0
20/02:30pm 21.1 16.3 4.6 34 8.1 S 19 28 10 15 1018.9 - 0.0
20/02:00pm 20.4 16.5 5.2 37 7.5 SSE 15 22 8 12 1019.2 - 0.0
20/01:30pm 19.5 14.8 3.2 34 7.7 S 17 30 9 16 1019.7 - 0.0
20/01:00pm 19.7 15.2 4.2 36 7.5 S 17 26 9 14 1020.0 - 0.0
20/12:30pm 19.5 15.5 4.8 38 7.2 SE 15 26 8 14 1020.4 - 0.0
20/12:00pm 18.7 14.2 4.1 38 7.0 ESE 17 28 9 15 1020.9 1020.8 0.0
20/11:30am 18.3 14.1 5.5 43 6.3 SE 17 24 9 13 1021.3 - 0.0
20/11:00am 17.9 14.2 6.4 47 5.7 SSE 15 28 8 15 1021.5 - 0.0
20/10:30am 17.3 14.2 7.4 52 5.0 SE 13 19 7 10 1021.9 - 0.0
20/10:00am 16.3 12.9 7.8 57 4.3 SE 15 19 8 10 1022.2 - 0.0
20/09:30am 15.0 12.4 7.8 62 3.6 ESE 11 19 6 10 1022.4 - 0.0
20/09:00am 13.8 12.0 9.3 74 2.3 SSE 9 11 5 6 1022.2 1022.1 0.0
20/08:30am 12.0 10.1 9.2 83 1.4 S 9 11 5 6 1022.2 - 0.0
20/08:00am 10.5 8.9 8.8 89 0.8 SW 7 11 4 6 1022.2 - 0.0
20/07:30am 8.6 7.0 7.8 95 0.4 SW 6 7 3 4 1021.9 - 0.0
20/07:00am 5.8 3.8 4.4 91 0.6 W 4 7 2 4 1021.7 - 0.0
20/06:30am 5.6 4.3 4.2 91 0.6 CALM 0 0 0 0 1021.2 - 0.0
20/06:00am 6.1 4.9 4.7 91 0.6 CALM 0 0 0 0 1021.1 1021.0 0.0
20/05:30am 6.1 4.2 4.7 91 0.6 NW 4 7 2 4 1020.6 - 0.0
20/05:00am 6.9 5.9 5.7 92 0.5 CALM 0 0 0 0 1020.3 - 0.0
20/04:30am 6.8 5.8 5.4 91 0.6 CALM 0 0 0 0 1019.9 - 0.0
20/04:00am 6.7 5.6 5.0 89 0.8 CALM 0 0 0 0 1019.8 - 0.0
20/03:30am 7.1 5.6 5.1 87 0.9 NW 2 6 1 3 1019.9 - 0.0
20/03:00am 8.3 6.4 6.9 91 0.7 WNW 6 7 3 4 1019.7 1019.6 0.0
20/02:30am 7.2 6.2 5.5 89 0.8 CALM 0 0 0 0 1019.6 - 0.0
20/02:00am 7.8 6.9 5.9 88 0.9 CALM 0 0 0 0 1019.7 - 0.0
20/01:30am 8.2 6.6 6.3 88 0.9 SSW 4 7 2 4 1019.7 - 0.0
20/01:00am 8.6 7.7 6.2 85 1.1 CALM 0 0 0 0 1019.9 - 0.0
20/12:30am 9.0 8.2 6.3 83 1.3 CALM 0 0 0 0 1019.8 - 0.0
20/12:00am 10.5 9.9 7.2 80 1.6 CALM 0 0 0 0 1019.9 1019.8 0.0
 
Date/Time
EST
Temp
°C
App
Temp
°C
Dew
Point
Rel
Hum
%
Delta-T
°C
Wind Press
QNH
hPa
Press
MSL
hPa
Rain
since 9 am
mm
Dir
 
Spd
km/h
Gust
km/h
Spd
kts
Gust
kts
19/11:30pm 11.4 9.1 7.5 77 1.9 S 9 13 5 7 1020.0 - 0.0
19/11:00pm 11.9 9.2 7.4 74 2.2 SSE 11 13 6 7 1019.9 - 0.0
19/10:30pm 12.4 9.4 7.7 73 2.3 S 13 17 7 9 1019.8 - 0.0
19/10:00pm 11.9 9.9 7.0 72 2.4 S 7 9 4 5 1020.0 - 0.0
19/09:30pm 13.0 10.6 7.2 68 2.8 SSE 9 11 5 6 1019.9 - 0.0
19/09:00pm 13.8 11.6 7.8 67 3.0 S 9 13 5 7 1019.8 1019.7 0.0
19/08:30pm 13.7 11.7 7.2 65 3.2 S 7 9 4 5 1019.5 - 0.0
19/08:00pm 13.8 11.4 7.1 64 3.3 SSW 9 11 5 6 1019.2 - 0.0
19/07:30pm 14.0 11.3 7.3 64 3.3 SSW 11 13 6 7 1019.0 - 0.0
19/07:00pm 14.3 11.8 6.6 60 3.8 SSW 9 13 5 7 1018.6 - 0.0
19/06:30pm 15.5 12.3 6.8 56 4.3 SSW 13 17 7 9 1018.3 - 0.0
19/06:00pm 16.2 12.5 6.3 52 4.9 SW 15 19 8 10 1018.0 1017.9 0.0

Other Formats:

Comma delimited format used in spreadsheet applications
http://www.bom.gov.au/fwo/IDQ60801/IDQ60801.94517.axf

JavaScript Object Notation format (JSON) in row-major order
http://www.bom.gov.au/fwo/IDQ60801/IDQ60801.94517.json